Time;durP1;ratioP1;P1;durP2;ratioP2;P2;SDS_P1;SDS_P2;PMS_P1;PMS_P2;Temp;Humidity;BMP_temperature;BMP_pressure;BME280_temperature;BME280_humidity;BME280_pressure;Samples;Min_cycle;Max_cycle;Signal;HPM_P1;HPM_P2
2023/05/17 00:05:32;;;;;;;0.03;0.03;;;;;;;8.17;58.81;101486.13;15681805;28;20052;-53
2023/05/17 00:13:05;;;;;;;0.57;0.57;;;;;;;8.35;59.37;101485.03;15669003;28;20041;-53
2023/05/17 00:20:40;;;;;;;1.05;0.13;;;;;;;8.15;60.46;101482.78;15679706;28;20125;-51
2023/05/17 00:28:13;;;;;;;7.25;0.75;;;;;;;7.95;61.44;101478.91;15691306;28;20032;-51
2023/05/17 00:35:47;;;;;;;0.63;0.50;;;;;;;8.41;60.44;101477.16;15683886;28;20045;-51
2023/05/17 00:43:20;;;;;;;1.25;0.65;;;;;;;8.18;60.95;101469.06;15671164;28;20047;-52
2023/05/17 00:50:56;;;;;;;1.27;0.50;;;;;;;7.61;63.32;101487.22;15660069;28;20044;-51
2023/05/17 00:58:29;;;;;;;1.73;1.15;;;;;;;8.00;62.72;101479.19;15673705;28;20036;-53
2023/05/17 01:06:06;;;;;;;1.27;1.15;;;;;;;8.11;62.72;101481.50;15684701;28;20045;-55
2023/05/17 01:13:47;;;;;;;1.08;0.52;;;;;;;7.78;63.67;101467.44;15658322;28;20036;-52
2023/05/17 01:21:37;;;;;;;2.92;1.00;;;;;;;7.93;63.15;101481.75;15638560;28;20064;-53
2023/05/17 01:29:14;;;;;;;4.30;1.15;;;;;;;8.02;63.72;101484.34;15683557;22;20457;-47
2023/05/17 01:36:49;;;;;;;0.75;0.65;;;;;;;8.05;63.24;101492.03;15632285;28;20045;-51
2023/05/17 01:44:33;;;;;;;1.50;0.80;;;;;;;7.93;63.46;101508.47;15623984;28;20393;-48
2023/05/17 01:52:12;;;;;;;0.25;0.25;;;;;;;7.75;63.43;101507.88;15607611;28;20140;-49
2023/05/17 01:59:48;;;;;;;0.40;0.30;;;;;;;7.71;63.83;101511.91;15600628;28;20056;-49
2023/05/17 02:07:23;;;;;;;0.38;0.28;;;;;;;7.13;65.99;101511.22;15601331;28;20511;-50
2023/05/17 02:14:57;;;;;;;0.05;0.05;;;;;;;7.21;67.71;101507.69;15589521;28;20375;-47
2023/05/17 02:22:30;;;;;;;1.52;0.57;;;;;;;7.45;66.08;101509.47;15609031;28;20041;-47
2023/05/17 02:30:06;;;;;;;0.10;0.10;;;;;;;7.51;66.75;101498.13;15620843;28;20087;-47
2023/05/17 02:37:40;;;;;;;0.28;0.03;;;;;;;7.45;68.15;101489.94;15596661;28;20336;-49
2023/05/17 02:45:15;;;;;;;0.38;0.10;;;;;;;7.33;69.00;101506.34;15596082;28;20084;-50
2023/05/17 02:52:48;;;;;;;9.63;1.63;;;;;;;7.47;68.11;101495.97;15599026;28;20045;-47
2023/05/17 03:00:23;;;;;;;0.40;0.40;;;;;;;7.38;69.28;101505.81;15598930;28;20133;-49
2023/05/17 03:07:56;;;;;;;1.05;0.50;;;;;;;7.78;68.37;101518.22;15596028;28;20049;-52
2023/05/17 03:15:31;;;;;;;8.53;1.13;;;;;;;8.14;67.66;101523.91;15601878;28;20054;-49
2023/05/17 03:23:04;;;;;;;0.88;0.52;;;;;;;8.53;66.19;101519.53;15610440;28;20369;-49
2023/05/17 03:30:41;;;;;;;1.13;0.38;;;;;;;8.40;66.12;101522.81;15617768;28;20048;-47
2023/05/17 03:38:15;;;;;;;9.48;0.60;;;;;;;8.21;67.07;101533.91;15623162;28;20045;-51
2023/05/17 03:45:52;;;;;;;0.20;0.15;;;;;;;8.56;66.35;101533.38;15630389;28;20045;-49
2023/05/17 03:53:29;;;;;;;0.75;0.43;;;;;;;8.03;67.71;101551.03;15588921;28;20109;-49
2023/05/17 04:01:04;;;;;;;2.45;1.23;;;;;;;8.18;67.36;101564.50;15599685;28;20033;-51
2023/05/17 04:08:41;;;;;;;0.22;0.22;;;;;;;8.23;67.37;101569.34;15610882;28;20131;-48
2023/05/17 04:16:16;;;;;;;1.27;0.47;;;;;;;8.39;66.58;101583.50;15590439;28;20136;-50
2023/05/17 04:23:49;;;;;;;1.10;0.75;;;;;;;8.09;67.80;101571.72;15613993;28;20200;-49
2023/05/17 04:31:23;;;;;;;1.55;0.52;;;;;;;8.30;67.18;101578.31;15600334;28;20048;-50
2023/05/17 04:38:58;;;;;;;1.90;1.33;;;;;;;8.36;66.65;101591.00;15597688;28;20037;-51
2023/05/17 04:46:42;;;;;;;1.08;0.50;;;;;;;8.77;65.88;101596.19;15599468;28;20049;-49
2023/05/17 04:54:18;;;;;;;4.20;1.33;;;;;;;9.08;65.35;101625.56;15602077;28;20057;-47
2023/05/17 05:01:53;;;;;;;0.60;0.38;;;;;;;9.33;64.62;101636.94;15588616;28;20049;-47
2023/05/17 05:09:27;;;;;;;1.45;0.50;;;;;;;9.20;64.79;101646.41;15624367;28;20045;-50
2023/05/17 05:17:01;;;;;;;5.07;0.90;;;;;;;9.40;64.37;101654.78;15663916;28;20456;-52
2023/05/17 05:24:37;;;;;;;2.70;0.68;;;;;;;9.75;63.29;101665.03;15626426;28;20042;-52
2023/05/17 05:32:12;;;;;;;;;;;;;;;9.84;62.87;101675.50;15588786;28;20049;-48
2023/05/17 05:39:52;;;;;;;5.82;1.02;;;;;;;11.01;60.15;101686.38;15636777;28;19931;-48
2023/05/17 05:47:27;;;;;;;0.88;0.60;;;;;;;11.30;58.33;101698.88;15609608;28;20562;-49
2023/05/17 05:55:00;;;;;;;1.38;1.27;;;;;;;11.74;55.72;101703.19;15647534;28;20041;-48
2023/05/17 06:02:39;;;;;;;0.95;0.50;;;;;;;12.45;52.23;101693.19;15621472;28;20037;-53
2023/05/17 06:10:12;;;;;;;0.30;0.28;;;;;;;11.97;53.16;101703.00;15625023;28;20099;-49
2023/05/17 06:17:46;;;;;;;0.70;0.53;;;;;;;11.54;54.30;101734.47;15639256;28;20045;-51
2023/05/17 06:25:20;;;;;;;2.75;0.30;;;;;;;10.85;56.80;101738.47;15657716;28;20430;-49
2023/05/17 06:32:55;;;;;;;0.10;0.10;;;;;;;10.66;54.73;101721.06;15648455;28;20098;-47
2023/05/17 06:40:29;;;;;;;1.23;0.73;;;;;;;11.14;54.76;101742.94;15617626;28;20037;-48
2023/05/17 06:48:04;;;;;;;1.10;0.50;;;;;;;11.57;51.89;101728.72;15645653;28;20140;-48
2023/05/17 06:55:37;;;;;;;0.32;0.32;;;;;;;11.85;50.40;101736.88;15639995;28;20049;-52
2023/05/17 07:03:11;;;;;;;0.10;0.10;;;;;;;13.37;48.19;101731.47;15646486;28;20048;-54
2023/05/17 07:10:53;;;;;;;1.63;0.65;;;;;;;12.91;47.92;101737.50;15634943;28;20044;-50
2023/05/17 07:18:30;;;;;;;0.10;0.10;;;;;;;13.26;47.69;101738.28;15655930;28;20087;-52
2023/05/17 07:26:03;;;;;;;0.00;0.00;;;;;;;14.64;44.37;101731.22;15651373;22;20041;-53
2023/05/17 07:33:38;;;;;;;0.52;0.43;;;;;;;13.02;46.85;101745.03;15623032;28;20477;-55
2023/05/17 07:41:20;;;;;;;2.47;0.95;;;;;;;13.20;45.34;101764.19;15675230;28;20498;-52
2023/05/17 07:48:54;;;;;;;3.30;0.45;;;;;;;13.64;44.46;101784.44;15675339;28;20545;-52
2023/05/17 07:56:27;;;;;;;1.45;0.88;;;;;;;14.23;43.23;101791.75;15673837;28;20148;-51
2023/05/17 08:04:05;;;;;;;0.20;0.20;;;;;;;14.82;42.71;101798.09;15688030;28;20044;-53
2023/05/17 08:11:44;;;;;;;0.80;0.63;;;;;;;14.82;41.72;101795.38;15672632;28;20053;-53
2023/05/17 08:19:21;;;;;;;3.20;0.57;;;;;;;14.31;41.50;101798.78;15668980;28;20053;-56
2023/05/17 08:26:58;;;;;;;0.47;0.43;;;;;;;14.38;43.27;101798.78;15672062;28;20486;-53
2023/05/17 08:34:32;;;;;;;1.98;0.55;;;;;;;14.39;40.47;101809.38;15667500;28;20503;-55
2023/05/17 08:42:08;;;;;;;0.40;0.32;;;;;;;15.16;40.56;101805.06;15667941;28;20037;-53
2023/05/17 08:49:43;;;;;;;0.17;0.17;;;;;;;15.73;39.34;101813.31;15665027;28;20094;-55
2023/05/17 08:57:17;;;;;;;1.15;0.40;;;;;;;15.23;38.95;101802.31;15658088;28;20500;-53
2023/05/17 09:04:54;;;;;;;0.52;0.32;;;;;;;15.49;39.79;101812.19;15668759;28;20044;-56
2023/05/17 09:12:28;;;;;;;0.28;0.22;;;;;;;16.03;41.10;101806.22;15667834;28;20040;-54
2023/05/17 09:20:02;;;;;;;0.30;0.22;;;;;;;16.55;39.21;101804.13;15668293;28;20071;-53
2023/05/17 09:27:35;;;;;;;0.63;0.40;;;;;;;16.94;36.90;101798.50;15670130;28;20080;-55
2023/05/17 09:35:10;;;;;;;3.20;0.85;;;;;;;16.65;38.18;101816.31;15652721;28;20122;-53
2023/05/17 09:42:48;;;;;;;3.92;0.90;;;;;;;17.21;36.41;101801.72;15668072;28;20064;-54
2023/05/17 09:50:22;;;;;;;1.45;0.60;;;;;;;16.75;35.10;101803.94;15647631;28;20049;-53
2023/05/17 09:58:03;;;;;;;0.43;0.30;;;;;;;15.61;35.67;101823.97;15684327;28;20048;-53
2023/05/17 10:05:40;;;;;;;0.15;0.15;;;;;;;16.40;35.89;101811.75;15668031;28;20545;-52
2023/05/17 10:13:15;;;;;;;0.28;0.25;;;;;;;17.34;35.11;101806.97;15682488;28;20387;-56
2023/05/17 10:20:50;;;;;;;0.13;0.05;;;;;;;17.41;34.25;101810.44;15681701;28;20048;-52
2023/05/17 10:28:23;;;;;;;0.52;0.43;;;;;;;17.51;35.04;101824.28;15674027;28;20043;-54
2023/05/17 10:36:02;;;;;;;0.35;0.30;;;;;;;17.67;34.23;101827.38;15664747;28;20041;-52
2023/05/17 10:43:42;;;;;;;1.33;0.80;;;;;;;18.35;32.18;101814.22;15671470;28;20080;-54
2023/05/17 10:51:23;;;;;;;4.22;0.88;;;;;;;19.53;31.61;101838.53;15668832;28;20132;-54
2023/05/17 10:59:16;;;;;;;2.75;0.38;;;;;;;19.26;31.95;101827.41;15675317;28;20040;-51
2023/05/17 11:06:52;;;;;;;4.75;0.95;;;;;;;18.79;31.91;101831.03;15678807;28;20064;-55
2023/05/17 11:14:26;;;;;;;5.07;0.45;;;;;;;19.48;31.48;101824.81;15675212;28;20037;-53
2023/05/17 11:22:10;;;;;;;;;;;;;;;20.11;30.31;101840.97;15674969;28;20045;-53
2023/05/17 11:29:46;;;;;;;0.45;0.13;;;;;;;19.85;30.52;101828.81;15671681;28;19927;-55
2023/05/17 11:37:30;;;;;;;1.90;0.63;;;;;;;19.39;31.30;101829.81;15652854;28;20466;-56
2023/05/17 11:45:03;;;;;;;2.13;0.98;;;;;;;18.69;31.68;101822.63;15662881;28;20033;-53
2023/05/17 11:52:43;;;;;;;0.70;0.43;;;;;;;19.01;30.27;101822.22;15666641;28;20060;-52
2023/05/17 12:00:16;;;;;;;0.88;0.32;;;;;;;19.00;31.44;101832.28;15691986;28;20563;-51
2023/05/17 12:07:52;;;;;;;0.30;0.30;;;;;;;19.48;30.59;101824.81;15673646;28;20118;-51
2023/05/17 12:15:27;;;;;;;1.42;0.40;;;;;;;20.88;29.97;101820.31;15656663;28;20041;-55
2023/05/17 12:23:01;;;;;;;0.65;0.30;;;;;;;20.76;28.54;101825.91;15673749;28;20040;-55
2023/05/17 12:30:38;;;;;;;14.55;0.73;;;;;;;20.39;29.10;101817.44;15646101;28;20048;-54
2023/05/17 12:38:13;;;;;;;1.70;0.30;;;;;;;20.54;30.56;101816.84;15658811;28;20132;-55
2023/05/17 12:45:49;;;;;;;1.60;0.50;;;;;;;20.69;30.87;101824.44;15626682;28;20132;-57
2023/05/17 12:53:24;;;;;;;0.30;0.17;;;;;;;20.43;30.57;101824.03;15649648;28;20061;-55
2023/05/17 13:01:01;;;;;;;0.10;0.10;;;;;;;21.20;29.57;101817.72;15635885;28;20088;-55
2023/05/17 13:08:37;;;;;;;0.10;0.10;;;;;;;20.68;29.02;101815.41;15649860;28;20052;-56
2023/05/17 13:16:10;;;;;;;1.33;0.65;;;;;;;20.23;29.53;101810.88;15662335;28;20044;-52
2023/05/17 13:23:48;;;;;;;2.63;0.47;;;;;;;19.70;28.62;101817.63;15671631;28;20040;-53
2023/05/17 13:31:20;;;;;;;14.90;4.97;;;;;;;19.20;30.49;101809.28;15709874;22;20139;-50
2023/05/17 13:38:55;;;;;;;;;;;;;;;18.20;31.83;101818.47;15696272;28;20053;-52
2023/05/17 13:46:28;;;;;;;1.38;0.65;;;;;;;17.84;31.50;101820.28;15662523;28;20308;-50
2023/05/17 13:54:02;;;;;;;1.48;0.57;;;;;;;17.73;32.27;101826.50;15633865;28;20476;-50
2023/05/17 14:01:38;;;;;;;0.30;0.22;;;;;;;18.59;30.76;101822.38;15658443;28;20448;-50
2023/05/17 14:09:12;;;;;;;0.38;0.20;;;;;;;17.93;31.94;101824.31;15671406;28;20041;-50
2023/05/17 14:16:45;;;;;;;3.03;0.50;;;;;;;17.91;33.40;101836.50;15664855;28;20041;-49
2023/05/17 14:24:22;;;;;;;0.98;0.25;;;;;;;17.46;31.42;101850.47;15645473;28;20061;-49
2023/05/17 14:31:54;;;;;;;2.88;0.40;;;;;;;17.32;33.31;101853.34;15646145;28;20492;-50
2023/05/17 14:39:28;;;;;;;0.30;0.20;;;;;;;17.56;33.73;101850.72;15633275;28;20057;-48
2023/05/17 14:47:01;;;;;;;0.80;0.65;;;;;;;17.29;33.32;101861.09;15647312;28;20033;-52
2023/05/17 14:54:35;;;;;;;0.20;0.20;;;;;;;17.51;33.38;101865.00;15655847;28;20087;-51
2023/05/17 15:02:08;;;;;;;0.68;0.52;;;;;;;17.63;32.88;101872.38;15672406;28;20045;-51
2023/05/17 15:09:43;;;;;;;0.70;0.40;;;;;;;17.27;34.28;101880.31;15657107;28;20060;-52
2023/05/17 15:17:15;;;;;;;1.25;0.40;;;;;;;16.91;34.17;101883.03;15677883;28;20041;-49
2023/05/17 15:24:54;;;;;;;1.98;0.35;;;;;;;16.90;34.04;101892.22;15658397;28;20045;-48
2023/05/17 15:32:29;;;;;;;1.35;0.60;;;;;;;16.66;33.84;101910.97;15658142;28;20169;-51
2023/05/17 15:40:09;;;;;;;2.35;0.22;;;;;;;16.77;35.11;101901.31;15656978;28;20139;-50
2023/05/17 15:47:42;;;;;;;0.17;0.17;;;;;;;16.44;33.21;101906.97;15656117;28;20068;-47
2023/05/17 15:55:17;;;;;;;1.00;0.45;;;;;;;16.29;34.08;101902.72;15655809;28;20094;-50
2023/05/17 16:02:50;;;;;;;0.85;0.28;;;;;;;16.29;34.91;101899.19;15653483;28;20040;-50
2023/05/17 16:10:24;;;;;;;;;;;;;;;16.31;34.17;101910.63;15674323;28;20048;-50
2023/05/17 16:17:57;;;;;;;0.10;0.10;;;;;;;15.58;35.14;101902.91;15644341;28;19944;-50
2023/05/17 16:25:31;;;;;;;0.47;0.47;;;;;;;16.28;34.29;101932.75;15631758;28;20490;-48
2023/05/17 16:33:07;;;;;;;0.77;0.30;;;;;;;15.87;35.28;101935.91;15650091;28;20068;-50
2023/05/17 16:40:45;;;;;;;0.77;0.50;;;;;;;15.44;36.95;101925.66;15654059;28;20367;-51
2023/05/17 16:48:18;;;;;;;0.13;0.13;;;;;;;15.56;36.23;101937.44;15660424;28;20049;-48
2023/05/17 16:55:55;;;;;;;0.47;0.33;;;;;;;15.39;35.68;101936.25;15655167;28;20069;-52
2023/05/17 17:03:35;;;;;;;0.65;0.25;;;;;;;15.91;35.90;101929.84;15673480;28;20182;-52
2023/05/17 17:11:09;;;;;;;1.00;0.45;;;;;;;15.42;35.49;101933.13;15658474;28;20064;-47
2023/05/17 17:18:46;;;;;;;1.08;0.85;;;;;;;15.34;35.92;101936.94;15675150;28;20382;-48
2023/05/17 17:26:20;;;;;;;3.00;0.47;;;;;;;14.95;36.30;101933.25;15646498;28;20069;-49
2023/05/17 17:33:53;;;;;;;0.08;0.08;;;;;;;15.05;36.19;101927.41;15628118;28;20060;-50
2023/05/17 17:41:27;;;;;;;0.40;0.30;;;;;;;15.19;36.23;101934.44;15651250;28;20045;-49
2023/05/17 17:49:00;;;;;;;1.02;0.52;;;;;;;14.88;35.56;101943.25;15644266;28;20300;-48
2023/05/17 17:56:36;;;;;;;2.47;0.30;;;;;;;15.06;36.09;101950.69;15645399;28;20124;-49
2023/05/17 18:04:10;;;;;;;2.05;0.75;;;;;;;14.82;36.96;101948.63;15609820;28;20111;-50
2023/05/17 18:11:44;;;;;;;5.20;0.32;;;;;;;14.67;37.16;101962.38;15634025;28;20048;-48
2023/05/17 18:19:22;;;;;;;0.15;0.10;;;;;;;14.53;37.30;101966.94;15584957;28;20116;-49
2023/05/17 18:26:56;;;;;;;0.90;0.45;;;;;;;14.39;38.67;101976.03;15590192;28;20141;-47
2023/05/17 18:34:29;;;;;;;0.20;0.15;;;;;;;14.19;38.87;101992.19;15636070;28;20110;-46
2023/05/17 18:42:03;;;;;;;0.50;0.27;;;;;;;14.26;39.85;102001.94;15623363;28;20045;-48
2023/05/17 18:49:41;;;;;;;2.83;0.25;;;;;;;14.02;39.55;102011.44;15630022;28;20041;-46
2023/05/17 18:57:17;;;;;;;2.75;0.82;;;;;;;14.04;40.75;102022.06;15683465;28;20041;-49
2023/05/17 19:04:50;;;;;;;4.95;0.50;;;;;;;13.72;41.33;102034.34;15635084;28;20052;-47
2023/05/17 19:12:27;;;;;;;0.87;0.53;;;;;;;13.83;40.52;102052.66;15615333;28;20037;-48
2023/05/17 19:20:00;;;;;;;0.30;0.30;;;;;;;13.50;42.25;102064.09;15608344;28;20037;-48
2023/05/17 19:27:34;;;;;;;0.70;0.30;;;;;;;13.25;43.29;102079.91;15644810;28;20408;-46
2023/05/17 19:35:07;;;;;;;6.35;0.98;;;;;;;13.09;42.52;102082.81;15672150;28;20041;-45
2023/05/17 19:42:42;;;;;;;5.03;0.30;;;;;;;12.64;44.27;102092.97;15592748;28;20052;-51
2023/05/17 19:50:15;;;;;;;0.13;0.13;;;;;;;12.33;45.68;102097.78;15571064;28;20282;-49
2023/05/17 19:57:49;;;;;;;0.55;0.50;;;;;;;12.24;45.73;102108.66;15610186;28;20108;-53
2023/05/17 20:05:26;;;;;;;2.72;0.82;;;;;;;12.05;47.70;102119.16;15633434;28;20038;-49
2023/05/17 20:13:00;;;;;;;1.13;0.50;;;;;;;11.79;47.20;102125.78;15623619;28;20041;-51
2023/05/17 20:20:34;;;;;;;0.70;0.45;;;;;;;11.47;49.47;102135.00;15615949;28;20087;-49
2023/05/17 20:28:09;;;;;;;0.68;0.55;;;;;;;11.44;49.35;102140.75;15595535;28;20033;-46
2023/05/17 20:35:42;;;;;;;4.03;1.10;;;;;;;11.41;49.28;102144.63;15655552;28;20041;-48
2023/05/17 20:43:16;;;;;;;1.67;0.77;;;;;;;11.19;50.05;102153.53;15617398;28;20049;-48
2023/05/17 20:50:52;;;;;;;0.47;0.40;;;;;;;11.09;49.83;102161.84;15629225;28;20403;-45
2023/05/17 20:58:27;;;;;;;3.90;1.13;;;;;;;10.78;51.15;102167.25;15634473;28;20398;-46
2023/05/17 21:06:00;;;;;;;0.55;0.30;;;;;;;10.58;51.80;102166.84;15630124;28;20069;-50
2023/05/17 21:13:39;;;;;;;0.43;0.43;;;;;;;10.51;51.98;102162.38;15632482;28;20456;-47
2023/05/17 21:21:12;;;;;;;0.22;0.15;;;;;;;10.36;52.36;102167.63;15629784;28;20410;-48
2023/05/17 21:28:46;;;;;;;2.05;0.55;;;;;;;10.38;52.84;102171.81;15614833;28;20072;-48
2023/05/17 21:36:19;;;;;;;2.67;1.08;;;;;;;10.38;52.13;102179.84;15666342;28;20049;-48
2023/05/17 21:43:53;;;;;;;2.33;0.93;;;;;;;10.42;52.18;102167.75;15644017;28;20521;-48
2023/05/17 21:51:27;;;;;;;2.97;1.33;;;;;;;10.38;53.01;102157.56;15663780;28;20072;-48
2023/05/17 21:59:01;;;;;;;2.03;1.50;;;;;;;10.18;54.04;102165.16;15632426;28;20056;-51
2023/05/17 22:06:34;;;;;;;0.75;0.65;;;;;;;10.10;52.97;102173.22;15666407;28;20053;-48
2023/05/17 22:14:08;;;;;;;0.97;0.83;;;;;;;10.20;52.94;102163.94;15646222;28;20037;-48
2023/05/17 22:21:41;;;;;;;1.42;0.68;;;;;;;10.10;52.79;102173.22;15644832;28;20049;-49
2023/05/17 22:29:18;;;;;;;4.20;1.20;;;;;;;10.22;52.22;102178.03;15620282;28;20072;-47
2023/05/17 22:36:51;;;;;;;2.35;0.65;;;;;;;10.20;52.27;102180.06;15645703;28;20037;-48
2023/05/17 22:44:26;;;;;;;0.47;0.47;;;;;;;9.94;53.27;102182.97;15598101;28;20364;-49
2023/05/17 22:52:04;;;;;;;1.30;0.63;;;;;;;9.93;53.64;102193.84;15640662;28;20038;-49
2023/05/17 22:59:45;;;;;;;1.48;0.95;;;;;;;9.74;54.18;102207.63;15593964;28;20041;-46
2023/05/17 23:07:22;;;;;;;2.15;0.95;;;;;;;9.87;54.10;102216.84;15626399;28;20521;-47
2023/05/17 23:15:01;;;;;;;1.02;0.60;;;;;;;9.84;53.92;102221.69;15618551;28;20037;-48
2023/05/17 23:22:34;;;;;;;4.28;0.32;;;;;;;9.76;54.44;102222.56;15665118;28;20083;-47
2023/05/17 23:30:10;;;;;;;0.40;0.40;;;;;;;9.57;54.80;102220.22;15667849;28;20069;-45
2023/05/17 23:37:45;;;;;;;3.25;0.80;;;;;;;9.41;54.80;102221.88;15650426;28;20045;-46
2023/05/17 23:45:25;;;;;;;0.55;0.47;;;;;;;9.18;55.87;102227.03;15638076;28;20456;-46
2023/05/17 23:53:02;;;;;;;0.20;0.15;;;;;;;9.16;56.85;102228.22;15657219;28;20041;-48
